Time;durP1;ratioP1;P1;durP2;ratioP2;P2;SDS_P1;SDS_P2;PMS_P1;PMS_P2;Temp;Humidity;BMP_temperature;BMP_pressure;BME280_temperature;BME280_humidity;BME280_pressure;Samples;Min_cycle;Max_cycle;Signal;HPM_P1;HPM_P2
2022/10/21 00:00:21;;;;;;;46.38;14.82;;;15.10;90.40;;;;;;5074742;28;20047;-62
2022/10/21 00:02:46;;;;;;;22.58;15.05;;;15.00;90.40;;;;;;5075477;28;20115;-61
2022/10/21 00:05:12;;;;;;;75.18;15.20;;;15.00;90.50;;;;;;5075064;28;20036;-60
2022/10/21 00:07:38;;;;;;;21.75;14.23;;;14.90;90.60;;;;;;5074872;28;20077;-60
2022/10/21 00:10:05;;;;;;;38.17;15.18;;;15.00;90.70;;;;;;5074486;28;20465;-60
2022/10/21 00:12:31;;;;;;;33.65;14.85;;;15.00;90.70;;;;;;5074496;28;20107;-62
2022/10/21 00:14:56;;;;;;;89.95;15.32;;;15.00;90.80;;;;;;5077122;28;20044;-61
2022/10/21 00:17:22;;;;;;;37.95;14.15;;;15.00;90.70;;;;;;5076179;28;20040;-62
2022/10/21 00:19:48;;;;;;;32.47;14.52;;;15.10;90.70;;;;;;5075679;28;20407;-62
2022/10/21 00:22:13;;;;;;;18.98;13.48;;;15.10;90.70;;;;;;5074714;28;20482;-60
2022/10/21 00:24:39;;;;;;;46.22;13.27;;;15.10;90.60;;;;;;5076300;28;20115;-61
2022/10/21 00:27:04;;;;;;;27.95;13.77;;;15.10;90.70;;;;;;5075483;28;20040;-62
2022/10/21 00:29:30;;;;;;;29.33;14.63;;;15.10;90.60;;;;;;5075909;28;20040;-60
2022/10/21 00:31:56;;;;;;;26.85;13.45;;;15.10;90.60;;;;;;5076393;28;20040;-61
2022/10/21 00:34:21;;;;;;;27.25;13.65;;;15.10;90.60;;;;;;5075620;28;20111;-61
2022/10/21 00:36:47;;;;;;;25.02;13.98;;;15.20;90.60;;;;;;5073472;28;20036;-61
2022/10/21 00:39:13;;;;;;;21.55;14.55;;;15.20;90.50;;;;;;5073327;28;20400;-58
2022/10/21 00:41:38;;;;;;;35.17;14.13;;;15.20;90.40;;;;;;5075195;28;20035;-61
2022/10/21 00:44:07;;;;;;;35.80;14.40;;;15.20;90.40;;;;;;5074715;28;20044;-60
2022/10/21 00:46:36;;;;;;;20.42;13.95;;;15.30;90.40;;;;;;5073502;28;20114;-62
2022/10/21 00:49:07;;;;;;;37.88;14.27;;;15.30;90.40;;;;;;5075487;28;20036;-60
2022/10/21 00:51:32;;;;;;;21.95;14.32;;;15.20;90.40;;;;;;5070250;28;21609;-60
2022/10/21 00:54:01;;;;;;;56.55;14.95;;;15.20;90.30;;;;;;5072902;28;20511;-62
2022/10/21 00:56:31;;;;;;;41.60;15.02;;;15.20;90.30;;;;;;5073355;28;20028;-62
2022/10/21 00:58:59;;;;;;;34.50;14.60;;;15.20;90.20;;;;;;5076027;28;20513;-60
2022/10/21 01:01:25;;;;;;;34.03;14.98;;;15.30;90.20;;;;;;5076852;28;20450;-61
2022/10/21 01:03:51;;;;;;;49.40;14.98;;;15.20;90.20;;;;;;5073451;28;20032;-61
2022/10/21 01:06:20;;;;;;;40.53;14.45;;;15.20;90.20;;;;;;5070848;28;20039;-61
2022/10/21 01:08:46;;;;;;;44.10;14.55;;;15.20;90.30;;;;;;5075520;28;20046;-60
2022/10/21 01:11:17;;;;;;;59.92;14.27;;;15.20;90.30;;;;;;5072317;28;20036;-61
2022/10/21 01:14:07;;;;;;;116.25;14.75;;;15.20;90.40;;;;;;5074942;28;20040;-61
2022/10/21 01:16:43;;;;;;;111.85;15.35;;;15.20;90.40;;;;;;5074401;28;20075;-59
2022/10/21 01:19:39;;;;;;;109.40;13.73;;;15.20;90.30;;;;;;5073255;28;20116;-59
2022/10/21 01:22:14;;;;;;;83.60;14.98;;;15.20;90.40;;;;;;5073342;28;20562;-60
2022/10/21 01:24:56;;;;;;;107.07;15.38;;;15.20;90.30;;;;;;5073711;28;20131;-61
2022/10/21 01:27:46;;;;;;;60.55;14.38;;;15.20;90.40;;;;;;5074439;28;20041;-61
2022/10/21 01:30:16;;;;;;;32.38;14.18;;;15.10;90.30;;;;;;5074333;28;20064;-61
2022/10/21 01:33:12;;;;;;;39.95;14.52;;;15.10;90.40;;;;;;5073522;28;20040;-60
2022/10/21 01:35:52;;;;;;;34.47;13.02;;;15.10;90.60;;;;;;5074627;28;20069;-60
2022/10/21 01:38:46;;;;;;;30.08;14.10;;;15.10;90.50;;;;;;5073111;28;20479;-61
2022/10/21 01:41:21;;;;;;;28.58;12.75;;;15.10;90.60;;;;;;5065705;28;20035;-59
2022/10/21 01:44:03;;;;;;;24.08;13.10;;;15.10;90.40;;;;;;5075540;28;20025;-61
2022/10/21 01:46:35;;;;;;;17.10;12.75;;;15.00;90.60;;;;;;5073146;27;20123;-61
2022/10/21 01:49:06;;;;;;;16.02;12.60;;;15.00;90.50;;;;;;5074555;28;20042;-60
2022/10/21 01:51:34;;;;;;;13.48;11.95;;;15.00;90.50;;;;;;5075128;28;20380;-60
2022/10/21 01:54:08;;;;;;;14.18;11.40;;;15.00;90.60;;;;;;5073660;28;20604;-60
2022/10/21 01:56:37;;;;;;;13.70;11.40;;;15.00;90.70;;;;;;5077303;28;20040;-60
2022/10/21 01:59:04;;;;;;;14.55;11.85;;;15.00;90.70;;;;;;5078259;28;20325;-60
2022/10/21 02:01:33;;;;;;;13.18;11.77;;;15.00;90.70;;;;;;5082394;28;20058;-61
2022/10/21 02:04:02;;;;;;;13.75;12.05;;;14.90;90.70;;;;;;5077959;28;20032;-61
2022/10/21 02:06:27;;;;;;;14.25;12.13;;;14.90;90.60;;;;;;5076810;28;20036;-60
2022/10/21 02:08:53;;;;;;;14.40;11.65;;;14.90;90.60;;;;;;5078286;28;20054;-61
2022/10/21 02:11:19;;;;;;;12.68;11.38;;;14.90;90.50;;;;;;5076990;28;20254;-61
2022/10/21 02:13:48;;;;;;;11.73;10.52;;;14.80;90.50;;;;;;5077680;28;20723;-60
2022/10/21 02:16:17;;;;;;;13.00;11.05;;;14.80;90.70;;;;;;5080776;27;20123;-60
2022/10/21 02:18:42;;;;;;;13.57;11.43;;;14.80;90.70;;;;;;5077616;28;20588;-61
2022/10/21 02:21:15;;;;;;;13.15;11.10;;;14.80;90.70;;;;;;5077407;28;20120;-61
2022/10/21 02:23:49;;;;;;;15.25;10.10;;;14.80;90.70;;;;;;5076828;28;20033;-61
2022/10/21 02:26:15;;;;;;;16.27;10.87;;;14.80;90.70;;;;;;5078648;28;20415;-61
2022/10/21 02:28:41;;;;;;;12.68;10.27;;;14.80;90.60;;;;;;5075327;28;20036;-61
2022/10/21 02:31:23;;;;;;;11.32;10.13;;;14.90;90.70;;;;;;5077721;28;20416;-60
2022/10/21 02:33:48;;;;;;;11.98;10.70;;;14.90;90.80;;;;;;5078449;28;20036;-60
2022/10/21 02:36:33;;;;;;;13.85;10.40;;;14.90;90.70;;;;;;5077992;28;20036;-60
2022/10/21 02:39:13;;;;;;;11.82;10.43;;;14.90;90.70;;;;;;5078029;28;20400;-60
2022/10/21 02:41:40;;;;;;;11.13;9.95;;;15.00;90.60;;;;;;5078411;28;20034;-60
2022/10/21 02:44:07;;;;;;;13.75;10.85;;;15.00;90.50;;;;;;5076966;28;20051;-61
2022/10/21 02:46:43;;;;;;;12.68;10.32;;;15.00;90.50;;;;;;5075714;28;20050;-61
2022/10/21 02:49:08;;;;;;;12.48;9.73;;;15.00;90.60;;;;;;5078604;28;20508;-60
2022/10/21 02:51:34;;;;;;;14.43;10.50;;;15.00;90.50;;;;;;5077744;28;20071;-60
2022/10/21 02:54:00;;;;;;;14.82;10.77;;;15.00;90.50;;;;;;5078614;28;20522;-61
2022/10/21 02:56:26;;;;;;;13.90;10.75;;;15.00;90.40;;;;;;5076575;28;20067;-61
2022/10/21 02:58:52;;;;;;;18.25;12.10;;;15.00;90.40;;;;;;5077576;28;20070;-61
2022/10/21 03:01:18;;;;;;;13.90;11.40;;;15.00;90.40;;;;;;5076308;28;20084;-61
2022/10/21 03:03:43;;;;;;;25.70;12.32;;;15.00;90.70;;;;;;5077802;28;20443;-62
2022/10/21 03:06:09;;;;;;;22.35;12.77;;;15.00;90.40;;;;;;5076674;28;20051;-61
2022/10/21 03:08:34;;;;;;;29.55;13.27;;;15.00;90.40;;;;;;5077093;28;20036;-60
2022/10/21 03:11:00;;;;;;;35.70;12.77;;;15.00;90.40;;;;;;5075349;28;20105;-59
2022/10/21 03:13:26;;;;;;;24.02;12.02;;;15.00;90.40;;;;;;5079813;28;20038;-60
2022/10/21 03:15:51;;;;;;;14.13;11.73;;;15.00;90.40;;;;;;5074336;28;20060;-62
2022/10/21 03:18:17;;;;;;;14.00;11.60;;;15.00;90.50;;;;;;5076886;28;20373;-60
2022/10/21 03:20:43;;;;;;;16.15;11.23;;;14.90;90.50;;;;;;5075518;28;20047;-61
2022/10/21 03:23:09;;;;;;;12.95;11.25;;;14.90;90.60;;;;;;5076892;28;20054;-60
2022/10/21 03:25:34;;;;;;;17.08;11.95;;;14.90;90.70;;;;;;5077795;28;20547;-62
2022/10/21 03:28:00;;;;;;;14.23;11.55;;;14.90;90.70;;;;;;5076608;28;20025;-62
2022/10/21 03:30:25;;;;;;;14.07;12.18;;;14.90;90.70;;;;;;5075600;28;20132;-61
2022/10/21 03:32:51;;;;;;;14.32;11.95;;;14.90;90.70;;;;;;5075124;28;20538;-61
2022/10/21 03:35:16;;;;;;;12.80;10.93;;;14.90;90.80;;;;;;5074910;28;20123;-62
2022/10/21 03:37:42;;;;;;;13.77;11.63;;;14.90;90.80;;;;;;5075984;28;20039;-62
2022/10/21 03:40:08;;;;;;;13.10;11.27;;;14.90;90.80;;;;;;5076350;28;20040;-62
2022/10/21 03:42:34;;;;;;;16.23;11.50;;;14.90;90.80;;;;;;5076609;28;20047;-62
2022/10/21 03:44:59;;;;;;;13.23;11.82;;;15.00;90.80;;;;;;5076262;28;20444;-62
2022/10/21 03:47:25;;;;;;;13.55;11.98;;;15.00;90.80;;;;;;5075948;28;20040;-62
2022/10/21 03:49:50;;;;;;;13.52;11.35;;;15.00;90.70;;;;;;5076596;28;20032;-61
2022/10/21 03:52:16;;;;;;;14.60;10.77;;;15.00;90.70;;;;;;5076021;28;20165;-61
2022/10/21 03:54:41;;;;;;;14.57;11.95;;;14.90;90.70;;;;;;5076018;28;20039;-62
2022/10/21 03:57:07;;;;;;;15.32;11.50;;;14.90;90.70;;;;;;5074985;28;20032;-62
2022/10/21 03:59:33;;;;;;;12.10;10.80;;;15.00;90.70;;;;;;5076641;28;20032;-62
2022/10/21 04:01:59;;;;;;;12.25;10.27;;;15.00;90.70;;;;;;5075769;28;20032;-62
2022/10/21 04:04:24;;;;;;;11.57;10.38;;;15.00;90.80;;;;;;5073838;28;20582;-62
2022/10/21 04:06:50;;;;;;;12.35;10.38;;;15.00;90.80;;;;;;5075323;28;20405;-62
2022/10/21 04:09:15;;;;;;;14.40;10.90;;;15.00;90.80;;;;;;5074952;28;20040;-62
2022/10/21 04:11:41;;;;;;;12.88;11.15;;;15.00;90.80;;;;;;5075197;28;20043;-61
2022/10/21 04:14:07;;;;;;;13.10;11.15;;;15.00;90.80;;;;;;5075088;28;20071;-61
2022/10/21 04:16:33;;;;;;;13.65;11.38;;;15.10;90.80;;;;;;5075363;28;20032;-60
2022/10/21 04:18:59;;;;;;;13.43;11.57;;;15.00;90.70;;;;;;5073421;28;20275;-60
2022/10/21 04:21:25;;;;;;;13.60;11.57;;;15.00;90.70;;;;;;5074972;28;20043;-61
2022/10/21 04:23:50;;;;;;;16.60;13.15;;;15.10;90.80;;;;;;5074715;28;20036;-59
2022/10/21 04:26:16;;;;;;;14.20;11.55;;;15.00;90.80;;;;;;5073788;28;20071;-60
2022/10/21 04:28:42;;;;;;;13.73;11.10;;;15.00;90.80;;;;;;5073347;28;20455;-62
2022/10/21 04:31:07;;;;;;;15.00;11.13;;;14.90;90.80;;;;;;5072849;28;20041;-60
2022/10/21 04:33:33;;;;;;;17.27;11.73;;;14.90;90.90;;;;;;5072545;28;20034;-61
2022/10/21 04:35:59;;;;;;;15.02;10.95;;;14.90;91.00;;;;;;5075636;27;20385;-60
2022/10/21 04:38:25;;;;;;;15.93;11.73;;;14.90;91.40;;;;;;5074863;28;20400;-61
2022/10/21 04:40:58;;;;;;;15.65;11.70;;;14.90;91.00;;;;;;5075022;28;20062;-62
2022/10/21 04:43:24;;;;;;;14.32;11.00;;;14.90;91.10;;;;;;5075478;28;20040;-61
2022/10/21 04:45:50;;;;;;;13.27;11.32;;;14.90;91.00;;;;;;5076796;28;20570;-61
2022/10/21 04:48:16;;;;;;;17.40;12.18;;;14.90;91.10;;;;;;5076201;28;20031;-61
2022/10/21 04:50:41;;;;;;;15.43;11.02;;;14.90;91.10;;;;;;5075086;28;20040;-61
2022/10/21 04:53:07;;;;;;;14.10;11.48;;;14.90;91.00;;;;;;5076980;28;20032;-60
2022/10/21 04:55:32;;;;;;;17.35;11.65;;;14.90;91.00;;;;;;5076338;28;20040;-60
2022/10/21 04:57:58;;;;;;;17.35;12.85;;;14.90;91.10;;;;;;5075953;28;20133;-61
2022/10/21 05:00:24;;;;;;;38.80;20.73;;;14.90;91.10;;;;;;5075725;28;20415;-60
2022/10/21 05:02:49;;;;;;;69.43;31.13;;;14.90;91.10;;;;;;5077412;28;20412;-60
2022/10/21 05:05:15;;;;;;;40.55;21.48;;;14.90;91.00;;;;;;5077321;28;20085;-60
2022/10/21 05:07:40;;;;;;;25.10;15.35;;;14.90;91.00;;;;;;5076005;28;20036;-60
2022/10/21 05:10:06;;;;;;;23.83;14.68;;;14.90;91.00;;;;;;5076553;28;20097;-61
2022/10/21 05:12:32;;;;;;;16.98;12.57;;;15.00;91.10;;;;;;5076494;28;20044;-60
2022/10/21 05:14:59;;;;;;;18.58;12.60;;;15.00;91.10;;;;;;5074563;28;20272;-60
2022/10/21 05:17:25;;;;;;;18.55;12.20;;;15.00;91.00;;;;;;5073654;28;20044;-61
2022/10/21 05:19:50;;;;;;;17.85;12.50;;;15.10;91.00;;;;;;5073864;28;20032;-60
2022/10/21 05:22:16;;;;;;;24.67;17.38;;;15.00;90.80;;;;;;5073999;28;20119;-61
2022/10/21 05:24:42;;;;;;;18.00;13.43;;;15.10;90.80;;;;;;5075134;28;20048;-59
2022/10/21 05:27:07;;;;;;;16.67;12.73;;;15.00;90.80;;;;;;5072827;28;20039;-61
2022/10/21 05:29:33;;;;;;;16.88;12.27;;;15.00;90.80;;;;;;5076112;28;20447;-60
2022/10/21 05:31:58;;;;;;;41.08;23.85;;;15.00;90.70;;;;;;5074670;28;20028;-60
2022/10/21 05:34:24;;;;;;;24.65;16.73;;;15.00;90.80;;;;;;5079112;28;20491;-59
2022/10/21 05:36:50;;;;;;;22.75;14.73;;;15.00;90.80;;;;;;5078826;28;20028;-60
2022/10/21 05:39:15;;;;;;;19.33;13.85;;;15.00;90.70;;;;;;5078652;28;20071;-61
2022/10/21 05:41:41;;;;;;;14.68;11.98;;;15.00;90.80;;;;;;5078908;28;20035;-60
2022/10/21 05:44:07;;;;;;;19.15;13.52;;;15.00;90.80;;;;;;5080321;28;20094;-62
2022/10/21 05:46:32;;;;;;;19.15;14.27;;;15.00;90.80;;;;;;5078393;28;20539;-60
2022/10/21 05:48:58;;;;;;;24.70;17.85;;;14.90;90.70;;;;;;5080069;28;20097;-60
2022/10/21 05:51:25;;;;;;;18.98;13.90;;;14.90;90.80;;;;;;5079824;28;20302;-60
2022/10/21 05:53:54;;;;;;;18.80;13.77;;;15.00;90.90;;;;;;5079104;28;20067;-60
2022/10/21 05:56:20;;;;;;;18.33;13.00;;;14.90;90.80;;;;;;5079011;28;20036;-60
2022/10/21 05:58:46;;;;;;;15.70;12.82;;;15.00;90.80;;;;;;5079495;28;20056;-60
2022/10/21 06:01:12;;;;;;;21.13;13.88;;;15.00;90.80;;;;;;5080679;28;20495;-60
2022/10/21 06:03:38;;;;;;;18.90;12.13;;;14.90;90.80;;;;;;5081954;28;20059;-59
2022/10/21 06:06:06;;;;;;;17.42;12.80;;;14.90;90.80;;;;;;5080115;28;20479;-60
2022/10/21 06:08:34;;;;;;;16.70;12.05;;;14.90;90.90;;;;;;5078837;28;20174;-60
2022/10/21 06:11:12;;;;;;;17.60;12.15;;;14.90;91.00;;;;;;5078813;28;20039;-60
2022/10/21 06:13:38;;;;;;;18.73;11.93;;;14.90;91.00;;;;;;5078616;28;20028;-60
2022/10/21 06:16:05;;;;;;;16.50;12.70;;;14.90;91.00;;;;;;5079585;28;20644;-60
2022/10/21 06:18:31;;;;;;;16.52;11.82;;;14.90;91.00;;;;;;5077476;28;20036;-60
2022/10/21 06:20:56;;;;;;;16.23;12.15;;;15.00;91.00;;;;;;5079385;28;20084;-62
2022/10/21 06:23:22;;;;;;;16.60;11.60;;;14.90;91.00;;;;;;5079159;28;20040;-60
2022/10/21 06:25:56;;;;;;;17.77;12.10;;;15.00;91.00;;;;;;5076425;28;20067;-60
2022/10/21 06:28:22;;;;;;;18.92;13.20;;;15.00;91.00;;;;;;5077361;28;20040;-59
2022/10/21 06:30:47;;;;;;;16.65;12.95;;;15.10;91.00;;;;;;5077734;28;20032;-61
2022/10/21 06:33:13;;;;;;;18.00;13.13;;;15.00;90.90;;;;;;5078282;28;20459;-61
2022/10/21 06:35:38;;;;;;;19.17;14.23;;;15.10;90.90;;;;;;5077068;28;20555;-59
2022/10/21 06:38:04;;;;;;;20.02;12.98;;;15.10;90.90;;;;;;5078838;28;20089;-61
2022/10/21 06:40:30;;;;;;;21.90;14.02;;;15.20;90.90;;;;;;5077316;28;20036;-61
2022/10/21 06:42:55;;;;;;;20.80;15.35;;;15.10;90.90;;;;;;5077936;28;20391;-61
2022/10/21 06:45:21;;;;;;;23.27;14.35;;;15.20;90.90;;;;;;5077825;28;20036;-61
2022/10/21 06:47:46;;;;;;;19.17;14.02;;;15.20;90.90;;;;;;5076810;28;20043;-62
2022/10/21 06:50:12;;;;;;;18.90;14.00;;;15.20;90.80;;;;;;5079029;28;20032;-59
2022/10/21 06:52:38;;;;;;;17.75;13.65;;;15.30;90.90;;;;;;5076891;28;20105;-61
2022/10/21 06:55:05;;;;;;;16.67;12.52;;;15.30;90.90;;;;;;5077569;28;20045;-60
2022/10/21 06:57:30;;;;;;;19.23;13.40;;;15.30;90.80;;;;;;5078662;28;20036;-62
2022/10/21 06:59:56;;;;;;;19.05;12.48;;;15.30;90.80;;;;;;5079077;28;20109;-61
2022/10/21 07:02:23;;;;;;;21.00;13.23;;;15.30;90.80;;;;;;5081160;28;20038;-62
2022/10/21 07:04:48;;;;;;;17.38;12.48;;;15.30;90.80;;;;;;5079324;28;20040;-61
2022/10/21 07:07:15;;;;;;;19.48;12.48;;;15.40;90.80;;;;;;5076856;28;20040;-62
2022/10/21 07:09:40;;;;;;;17.52;12.65;;;15.40;90.70;;;;;;5079277;28;20043;-62
2022/10/21 07:12:06;;;;;;;18.08;12.50;;;15.40;90.70;;;;;;5075832;28;20040;-62
2022/10/21 07:14:31;;;;;;;19.45;13.27;;;15.40;90.60;;;;;;5076505;28;20388;-62
2022/10/21 07:16:57;;;;;;;17.88;13.05;;;15.40;90.60;;;;;;5076479;28;20123;-62
2022/10/21 07:19:22;;;;;;;16.77;12.13;;;15.40;90.60;;;;;;5078203;28;20034;-62
2022/10/21 07:21:48;;;;;;;16.73;11.68;;;15.40;90.60;;;;;;5079467;28;20044;-62
2022/10/21 07:24:14;;;;;;;14.43;11.65;;;15.40;90.60;;;;;;5077768;28;20044;-62
2022/10/21 07:26:39;;;;;;;21.25;13.18;;;15.40;91.00;;;;;;5076478;28;20511;-61
2022/10/21 07:29:05;;;;;;;17.05;13.20;;;15.40;90.70;;;;;;5075381;28;20030;-62
2022/10/21 07:31:34;;;;;;;20.13;14.70;;;15.50;90.70;;;;;;5077414;28;20039;-62
2022/10/21 07:34:01;;;;;;;24.52;15.55;;;15.40;90.70;;;;;;5075198;28;20127;-62
2022/10/21 07:36:29;;;;;;;18.52;14.80;;;15.40;90.70;;;;;;5075826;28;20025;-62
2022/10/21 07:38:57;;;;;;;21.98;13.88;;;15.40;90.70;;;;;;5075654;28;20032;-62
2022/10/21 07:41:28;;;;;;;18.42;13.70;;;15.40;90.80;;;;;;5076411;28;20032;-62
2022/10/21 07:43:54;;;;;;;19.65;13.70;;;15.40;91.00;;;;;;5077004;28;20120;-62
2022/10/21 07:46:20;;;;;;;18.67;12.88;;;15.30;90.90;;;;;;5076886;28;20508;-62
2022/10/21 07:48:46;;;;;;;20.20;13.68;;;15.30;91.00;;;;;;5075295;28;20104;-62
2022/10/21 07:51:14;;;;;;;17.42;13.10;;;15.30;91.00;;;;;;5076992;28;20040;-62
2022/10/21 07:53:40;;;;;;;19.17;13.32;;;15.20;91.10;;;;;;5077049;28;20028;-62
2022/10/21 07:56:12;;;;;;;18.77;12.13;;;15.20;91.20;;;;;;5075619;28;20040;-62
2022/10/21 07:58:38;;;;;;;20.95;13.23;;;15.30;91.30;;;;;;5075652;28;20101;-61
2022/10/21 08:01:05;;;;;;;20.25;13.23;;;15.30;91.30;;;;;;5078567;28;20461;-62
2022/10/21 08:03:32;;;;;;;18.02;12.35;;;15.30;91.40;;;;;;5076264;28;20057;-62
2022/10/21 08:05:58;;;;;;;19.88;12.60;;;15.30;91.50;;;;;;5078056;28;20031;-62
2022/10/21 08:08:24;;;;;;;16.63;12.43;;;15.30;91.50;;;;;;5077006;28;20028;-62
2022/10/21 08:10:51;;;;;;;16.73;12.82;;;15.30;91.50;;;;;;5077497;28;20416;-62
2022/10/21 08:13:17;;;;;;;16.98;11.70;;;15.30;91.60;;;;;;5077486;28;20060;-62
2022/10/21 08:15:47;;;;;;;15.85;12.05;;;15.40;91.60;;;;;;5078361;28;20090;-62
2022/10/21 08:18:13;;;;;;;17.67;11.77;;;15.40;91.70;;;;;;5077032;28;20037;-61
2022/10/21 08:20:40;;;;;;;17.42;11.73;;;15.40;91.60;;;;;;5074695;28;20491;-61
2022/10/21 08:23:06;;;;;;;16.33;11.48;;;15.40;91.70;;;;;;5077013;28;20601;-60
2022/10/21 08:25:32;;;;;;;16.65;11.20;;;15.50;91.70;;;;;;5077887;28;20041;-60
2022/10/21 08:27:58;;;;;;;14.63;10.32;;;15.60;91.70;;;;;;5076815;28;20032;-61
2022/10/21 08:30:28;;;;;;;15.77;11.43;;;15.60;91.60;;;;;;5077769;28;20041;-61
2022/10/21 08:32:54;;;;;;;17.10;11.02;;;15.60;91.70;;;;;;5077235;28;20380;-62
2022/10/21 08:35:20;;;;;;;17.52;10.82;;;15.70;91.70;;;;;;5077241;28;20097;-62
2022/10/21 08:37:47;;;;;;;14.93;10.38;;;15.70;91.70;;;;;;5077766;28;20036;-62
2022/10/21 08:40:13;;;;;;;13.45;9.43;;;15.80;91.70;;;;;;5077450;28;20085;-60
2022/10/21 08:42:41;;;;;;;15.57;9.98;;;15.80;91.70;;;;;;5077439;28;20492;-60
2022/10/21 08:45:14;;;;;;;18.67;10.48;;;15.90;91.70;;;;;;5077233;28;20631;-61
2022/10/21 08:47:44;;;;;;;14.82;10.23;;;16.00;91.70;;;;;;5076275;28;20491;-60
2022/10/21 08:50:24;;;;;;;13.95;9.68;;;16.00;91.70;;;;;;5075956;28;20168;-60
2022/10/21 08:52:53;;;;;;;16.63;10.27;;;16.00;91.70;;;;;;5078363;28;20040;-61
2022/10/21 08:55:35;;;;;;;14.55;9.75;;;16.00;91.70;;;;;;5079039;28;20059;-61
2022/10/21 08:58:03;;;;;;;16.00;9.68;;;16.00;92.20;;;;;;5078468;28;20036;-61
2022/10/21 09:01:07;;;;;;;14.80;10.43;;;16.10;91.70;;;;;;5078449;28;20043;-61
2022/10/21 09:03:53;;;;;;;15.55;9.43;;;16.10;92.00;;;;;;5078342;28;20126;-61
2022/10/21 09:06:47;;;;;;;14.65;9.93;;;16.10;91.90;;;;;;5079011;28;20494;-60
2022/10/21 09:09:27;;;;;;;14.40;10.05;;;16.20;92.10;;;;;;5078351;28;20036;-60
2022/10/21 09:12:34;;;;;;;15.35;9.98;;;16.20;92.10;;;;;;5079887;28;20383;-59
2022/10/21 09:15:16;;;;;;;17.77;9.40;;;16.20;92.30;;;;;;5078247;28;20523;-62
2022/10/21 09:18:00;;;;;;;15.70;9.50;;;16.40;92.40;;;;;;5078515;28;20067;-62
2022/10/21 09:20:35;;;;;;;18.35;9.50;;;16.40;92.20;;;;;;5078102;28;20037;-61
2022/10/21 09:23:32;;;;;;;15.52;9.32;;;16.50;92.30;;;;;;5079160;28;20421;-60
2022/10/21 09:26:09;;;;;;;13.20;9.48;;;16.60;92.30;;;;;;5075286;28;20042;-61
2022/10/21 09:28:35;;;;;;;16.42;10.90;;;16.70;92.10;;;;;;5074960;28;20092;-60
2022/10/21 09:31:11;;;;;;;14.90;9.52;;;16.70;92.00;;;;;;5076342;28;20440;-61
2022/10/21 09:33:37;;;;;;;13.70;8.88;;;16.80;91.90;;;;;;5076474;28;20519;-61
2022/10/21 09:36:11;;;;;;;10.85;7.38;;;16.80;91.80;;;;;;5076982;28;20069;-60
2022/10/21 09:38:51;;;;;;;13.43;7.68;;;16.90;91.90;;;;;;5077398;28;20046;-61
2022/10/21 09:41:25;;;;;;;17.02;7.90;;;16.90;91.90;;;;;;5077383;28;20052;-60
2022/10/21 09:43:51;;;;;;;13.77;7.97;;;17.00;91.90;;;;;;5075843;28;20499;-60
2022/10/21 09:46:17;;;;;;;16.08;8.82;;;17.00;91.80;;;;;;5076353;28;20033;-61
2022/10/21 09:48:50;;;;;;;14.30;8.82;;;17.10;91.70;;;;;;5075145;28;20028;-61
2022/10/21 09:51:27;;;;;;;17.40;9.20;;;17.10;91.70;;;;;;5077182;28;20120;-60
2022/10/21 09:53:56;;;;;;;11.77;8.13;;;17.20;91.60;;;;;;5076376;28;20036;-60
2022/10/21 09:56:30;;;;;;;12.00;7.38;;;17.20;91.50;;;;;;5077719;28;20081;-60
2022/10/21 09:59:18;;;;;;;9.85;6.28;;;17.30;91.60;;;;;;5077223;28;20059;-60
2022/10/21 10:01:45;;;;;;;9.00;5.28;;;17.30;91.50;;;;;;5079023;28;20082;-60
2022/10/21 10:04:21;;;;;;;9.50;6.10;;;17.30;91.40;;;;;;5078277;28;20035;-62
2022/10/21 10:06:46;;;;;;;9.20;5.45;;;17.30;91.30;;;;;;5077841;28;20458;-60
2022/10/21 10:09:25;;;;;;;8.98;5.57;;;17.30;91.30;;;;;;5078402;28;20059;-61
2022/10/21 10:12:00;;;;;;;7.93;5.18;;;17.40;91.30;;;;;;5075690;28;20036;-62
2022/10/21 10:14:27;;;;;;;9.68;5.55;;;17.40;91.20;;;;;;5076956;28;20556;-62
2022/10/21 10:16:53;;;;;;;7.95;5.93;;;17.50;91.10;;;;;;5075391;28;20025;-62
2022/10/21 10:19:23;;;;;;;11.02;6.50;;;17.50;91.10;;;;;;5077658;28;20028;-62
2022/10/21 10:22:14;;;;;;;7.85;5.47;;;17.60;91.20;;;;;;5079237;28;20120;-62
2022/10/21 10:24:41;;;;;;;9.68;6.15;;;17.60;91.30;;;;;;5077875;28;20032;-61
2022/10/21 10:27:19;;;;;;;8.48;5.68;;;17.60;91.20;;;;;;5079830;28;20589;-62
2022/10/21 10:29:51;;;;;;;9.88;5.53;;;17.60;91.20;;;;;;5078846;28;20044;-60
2022/10/21 10:32:17;;;;;;;9.90;5.57;;;17.70;91.10;;;;;;5080032;28;20079;-61
2022/10/21 10:34:55;;;;;;;8.18;4.97;;;17.70;91.10;;;;;;5078906;28;20037;-62
2022/10/21 10:37:25;;;;;;;5.85;4.65;;;17.70;91.10;;;;;;5077806;28;20520;-61
2022/10/21 10:39:54;;;;;;;5.85;4.47;;;17.70;91.10;;;;;;5080025;28;20094;-62
2022/10/21 10:42:27;;;;;;;3.85;3.42;;;17.80;91.00;;;;;;5080467;28;20094;-62
2022/10/21 10:44:55;;;;;;;6.45;3.20;;;17.80;90.80;;;;;;5078187;28;20413;-62
2022/10/21 10:47:28;;;;;;;4.10;3.22;;;17.80;90.60;;;;;;5094701;28;20377;-62
2022/10/21 10:49:54;;;;;;;4.30;3.13;;;17.80;90.50;;;;;;5078548;28;20034;-62
2022/10/21 10:52:23;;;;;;;3.90;2.42;;;17.80;90.50;;;;;;5079077;28;20120;-62
2022/10/21 10:55:11;;;;;;;4.05;2.65;;;17.80;90.20;;;;;;5078024;28;20071;-62
2022/10/21 10:57:41;;;;;;;3.67;2.53;;;17.80;89.70;;;;;;5079617;28;20043;-62
2022/10/21 11:00:19;;;;;;;2.85;1.65;;;17.90;89.90;;;;;;5080277;28;20040;-63
2022/10/21 11:03:02;;;;;;;1.83;1.38;;;17.80;88.80;;;;;;5080662;28;20040;-63
2022/10/21 11:05:43;;;;;;;1.88;1.60;;;17.80;89.30;;;;;;5079145;28;20132;-62
2022/10/21 11:08:29;;;;;;;3.28;1.30;;;17.80;88.30;;;;;;5079334;28;20546;-62
2022/10/21 11:11:29;;;;;;;;;;;17.80;88.00;;;;;;5077819;28;20044;-62
2022/10/21 11:13:56;;;;;;;1.83;1.00;;;17.80;88.30;;;;;;5040945;28;19964;-61
2022/10/21 11:16:46;;;;;;;2.42;0.85;;;17.80;88.30;;;;;;5070622;28;20029;-63
2022/10/21 11:19:33;;;;;;;1.50;0.90;;;17.70;87.40;;;;;;5077199;28;20036;-62
2022/10/21 11:22:21;;;;;;;4.32;3.10;;;17.60;87.80;;;;;;5077451;28;20047;-62
2022/10/21 11:25:20;;;;;;;5.10;1.48;;;17.60;87.70;;;;;;5077805;28;20612;-62
2022/10/21 11:28:10;;;;;;;1.48;0.98;;;17.60;88.00;;;;;;5077609;28;20063;-62
2022/10/21 11:30:57;;;;;;;2.95;1.08;;;17.50;87.70;;;;;;5078317;28;20040;-62
2022/10/21 11:33:40;;;;;;;1.85;1.13;;;17.40;88.00;;;;;;5078580;28;20032;-61
2022/10/21 11:36:15;;;;;;;2.08;1.20;;;17.50;88.30;;;;;;5076706;28;20043;-62
2022/10/21 11:38:53;;;;;;;2.17;1.10;;;17.40;88.30;;;;;;5078010;28;20035;-62
2022/10/21 11:41:24;;;;;;;2.03;1.10;;;17.40;88.30;;;;;;5078238;28;20044;-60
2022/10/21 11:44:21;;;;;;;2.28;1.10;;;17.40;88.50;;;;;;5078870;28;20411;-62
2022/10/21 11:47:27;;;;;;;3.58;1.00;;;17.40;88.40;;;;;;5077100;27;20503;-60
2022/10/21 11:50:19;;;;;;;2.35;1.10;;;17.40;88.10;;;;;;5076349;28;20380;-59
2022/10/21 11:53:13;;;;;;;1.60;0.80;;;17.40;88.10;;;;;;5079313;28;20121;-61
2022/10/21 11:56:13;;;;;;;1.58;0.85;;;17.40;88.10;;;;;;5080252;28;20039;-62
2022/10/21 11:59:13;;;;;;;2.67;1.50;;;17.40;88.00;;;;;;5080106;28;20074;-61
2022/10/21 12:01:46;;;;;;;3.47;2.10;;;17.40;88.00;;;;;;5064942;28;20503;-62
2022/10/21 12:04:29;;;;;;;2.70;1.63;;;17.40;88.30;;;;;;5079105;28;20153;-62
2022/10/21 12:07:05;;;;;;;5.03;1.48;;;17.40;88.30;;;;;;5076639;28;20040;-61
2022/10/21 12:09:42;;;;;;;1.88;1.15;;;17.40;88.60;;;;;;5078541;28;20124;-62
2022/10/21 12:12:15;;;;;;;1.60;1.50;;;17.40;88.50;;;;;;5076862;28;20123;-61
2022/10/21 12:14:47;;;;;;;1.85;1.50;;;17.40;88.50;;;;;;5078308;28;20037;-63
2022/10/21 12:17:21;;;;;;;2.13;1.73;;;17.40;88.60;;;;;;5077258;28;20028;-62
2022/10/21 12:19:57;;;;;;;16.58;1.80;;;17.40;88.60;;;;;;5077286;28;20387;-62
2022/10/21 12:22:26;;;;;;;1.85;1.40;;;17.40;88.70;;;;;;5077417;28;20558;-61
2022/10/21 12:25:11;;;;;;;3.17;1.50;;;17.40;88.80;;;;;;5077367;28;20047;-62
2022/10/21 12:27:40;;;;;;;1.92;1.50;;;17.40;88.50;;;;;;5072796;28;20173;-62
2022/10/21 12:30:19;;;;;;;2.45;1.38;;;17.40;88.70;;;;;;5077138;28;21974;-62
2022/10/21 12:33:06;;;;;;;2.13;1.33;;;17.40;88.70;;;;;;5077136;28;20040;-62
2022/10/21 12:36:13;;;;;;;4.40;1.83;;;17.40;89.60;;;;;;5077250;28;20044;-62
2022/10/21 12:38:47;;;;;;;2.53;1.50;;;17.40;88.50;;;;;;5068815;28;20040;-60
2022/10/21 12:41:41;;;;;;;2.80;1.25;;;17.40;88.60;;;;;;5077032;28;20107;-60
2022/10/21 12:44:20;;;;;;;2.17;1.30;;;17.50;89.20;;;;;;5076018;28;20064;-62
2022/10/21 12:47:00;;;;;;;2.63;1.30;;;17.50;88.60;;;;;;5077836;28;20063;-62
2022/10/21 12:49:31;;;;;;;1.85;1.65;;;17.50;88.60;;;;;;5076353;28;20040;-61
2022/10/21 12:52:10;;;;;;;2.55;1.40;;;17.50;88.60;;;;;;5077465;28;20028;-60